YBHMYBTL

Guest
Details From YBHM - Hamilton I.
To YBTL - Townsville Intl
Flight Number -
Tags generated
Created
Modified
Stats Distance 140 nm / 260 km
Max Altitude 10,500 ft / 3,200 m
Waypoints 3
Social Downloads 2
Likes 0
Share VATSIM

Download

Looking for another format? Having issues loading an existing format? Contact us
Advertisement - Login to hide

Notes

Basic altitude profile: - Ascent Rate: 3000ft/min - Ascent Speed: 350kts - Cruise Altitude: 35000ft - Cruise Speed: 350kts - Descent Rate: 2500ft/min - Descent Speed: 250kts Options: - Use NATs: yes - Use PACOTS: yes - Use low airways: yes - Use high airways: yes

Route

YBHM WALTA YBTL

ID Type Via Altitude Latitude Longitude Leg Dist Tot Dist Heading (true) Name
O YBHM APT - 0 ft / 0 m -20.35748˚ 148.95164˚ - 0 nm - Hamilton I.
WALTA FIX - 10,500 ft / 3,200 m -19.69056˚ 147.59056˚ 86 nm 86 nm 297° / 298° -
O YBTL APT - 0 ft / 0 m -19.25135˚ 146.76502˚ 53 nm 140 nm 299° / 300° Townsville Intl

Altitude Profile

Advertisement - Login to hide

YBHM

Details ICAO YBHM (HTI)
Name Hamilton I.
Region Australia
Timezone Australia/Lindeman (UTC+10.0)
Stats Elevation 14 ft / 4 m (AMSL)
Location -20.357481° 148.951639°
Runways 1
Magnetic Variation 8.158° E

METAR

YBHM 140230Z AUTO 12018KT 9999 // NCD 29/21 Q1010

Decode

TAF

TAF AMD YBHM 132119Z 1321/1406 14018KT 9999 -SHRA SCT022 FM140100 13018KT 9999 FEW030

Decode

Departure Runways

ID Width Length Bearing (true) Bearing (mag) Surface Threshold Offset Overrun Length
14 148 ft / 45 m 5,792 ft / 1,765 m 143.04° 134.88° Asphalt 0 ft / 0 m 0 ft / 0 m
32 148 ft / 45 m 5,792 ft / 1,765 m 323.03° 314.87° Asphalt 0 ft / 0 m 0 ft / 0 m

YBTL

Details ICAO YBTL (TSV)
Name Townsville Intl
Region Australia
Timezone Australia/Brisbane (UTC+10.0)
Stats Elevation 18 ft / 5 m (AMSL)
Location -19.251349° 146.765017°
Runways 2
Magnetic Variation 7.384° E

METAR

YBTL 140230Z 06015KT 9999 FEW042 31/20 Q1008 NOSIG

Decode

TAF

TAF YBTL 132252Z 1400/1424 11012KT 9999 FEW035 FM140100 06017KT 9999 FEW040 FM140900 09011KT 9999 FEW025 FM141400 14007KT 9999 SCT025

Decode

Destination Runways

ID Width Length Bearing (true) Bearing (mag) Surface Threshold Offset Overrun Length
01 148 ft / 45 m 8,035 ft / 2,449 m 24.00° 16.62° Asphalt 0 ft / 0 m 0 ft / 0 m
07 98 ft / 30 m 3,617 ft / 1,102 m 73.84° 66.46° Concrete 0 ft / 0 m 0 ft / 0 m
19 148 ft / 45 m 8,035 ft / 2,449 m 204.00° 196.62° Asphalt 0 ft / 0 m 0 ft / 0 m
25 98 ft / 30 m 3,617 ft / 1,102 m 253.84° 246.46° Concrete 0 ft / 0 m 0 ft / 0 m

Approach Navaids

Runway Type Ident Frequency Range Bearing (true) Bearing (mag) Slope Elevation
01 Localiser ITL 109.30 MHz 18 nm / 33 km 23.71° 16.32° - 13 ft / 4 m (AMSL)
01 Glidescope ITL 109.30 MHz 10 nm / 19 km 24.02° 16.64° 3.00° 18 ft / 5 m (AMSL)
01 DME ITL 109.30 MHz 18 nm / 33 km - - - 18 ft / 5 m (AMSL)

Popular Alternatives